Terminal Aerodrome Forecast
Issued by NWS Hastings, NE

Home | Current Version | Previous Version | Text Only | Print | Product List | Glossary On
Versions: 1 2 3 4 5 6 7 8 9 10 11 12 13 14 15 16 17 18 19 20 21 22 23 24 25 26 27 28 29 30
000
FTUS43 KGID 261136
TAFGRI
TAF
KGRI 261136Z 2612/2712 33017G24KT P6SM OVC015
     FM261700 34016G24KT P6SM BKN025
     FM261900 33015G22KT P6SM BKN040
     FM262200 34014G19KT P6SM SCT040
     FM270000 34012KT P6SM FEW040
     FM270200 35006KT P6SM SKC=

USA.gov is the U.S. government's official web portal to all federal, state and local government web resources and services.